Terminal Aerodrome Forecast
Issued by NWS

Home | Current Version | Previous Version | Text Only | Print | Product List | Glossary On
Versions: 1 2 3 4 5 6 7 8 9 10 11 12 13 14 15 16 17 18 19 20 21 22 23
000
FTUS43 KDVN 020800 AAB
TAFBRL
TAF AMD
KBRL 020843Z 0209/0306 16006KT 6SM BR SCT009 OVC090
      TEMPO 0209/0212 3SM BR BKN009
     FM021200 10003KT 2SM BR OVC009
      TEMPO 0212/0214 1SM BR
     FM021800 15006KT 4SM -SHRA BR SCT020 BKN035
      TEMPO 0222/0302 3SM TSRA BR BKN015CB OVC025
     FM030200 31010KT P6SM OVC012=

USA.gov is the U.S. government's official web portal to all federal, state and local government web resources and services.